createdAt,value
2018-12-20T00:01:27.197Z,94.90
2018-12-20T00:03:54.826Z,94.90
2018-12-20T00:06:22.817Z,94.90
2018-12-20T00:08:51.522Z,94.90
2018-12-20T00:11:19.327Z,95.00
2018-12-20T00:13:46.862Z,95.00
2018-12-20T00:16:14.420Z,95.00
2018-12-20T00:18:41.960Z,95.10
2018-12-20T00:21:09.519Z,95.10
2018-12-20T00:23:37.352Z,95.20
2018-12-20T00:26:05.327Z,95.20
2018-12-20T00:28:33.018Z,95.20
2018-12-20T00:31:00.840Z,95.20
2018-12-20T00:33:28.814Z,95.30
2018-12-20T00:35:56.346Z,95.20
2018-12-20T00:38:24.213Z,95.20
2018-12-20T00:40:52.039Z,95.20
2018-12-20T00:43:19.729Z,95.20
2018-12-20T00:45:47.458Z,95.10
2018-12-20T00:48:15.311Z,95.20
2018-12-20T00:50:42.991Z,95.20
2018-12-20T00:53:10.631Z,95.10
2018-12-20T00:55:38.171Z,95.20
2018-12-20T00:58:05.928Z,95.10
2018-12-20T01:00:33.725Z,95.10
2018-12-20T01:03:01.801Z,95.30
2018-12-20T01:05:29.327Z,95.20
2018-12-20T01:07:56.959Z,95.20
2018-12-20T01:10:24.784Z,95.10
2018-12-20T01:12:52.575Z,95.00
2018-12-20T01:15:20.205Z,94.90
2018-12-20T01:17:47.847Z,94.80
2018-12-20T01:20:15.437Z,95.00
2018-12-20T01:22:43.320Z,95.00
2018-12-20T01:25:11.214Z,94.90
2018-12-20T01:27:38.751Z,94.90
2018-12-20T01:30:07.998Z,94.90
2018-12-20T01:32:35.948Z,95.00
2018-12-20T01:35:04.286Z,95.00
2018-12-20T01:37:31.965Z,95.10
2018-12-20T01:39:59.601Z,95.10
2018-12-20T01:42:27.078Z,95.10
2018-12-20T01:44:54.707Z,95.40
2018-12-20T01:47:22.384Z,95.40
2018-12-20T01:49:49.848Z,95.50
2018-12-20T01:52:17.380Z,95.30
2018-12-20T01:54:45.129Z,95.60
2018-12-20T01:57:12.754Z,95.40
2018-12-20T01:59:40.401Z,95.60
2018-12-20T02:02:25.049Z,95.90
2018-12-20T02:04:52.738Z,96.00
2018-12-20T02:07:20.382Z,95.90
2018-12-20T02:09:48.308Z,95.70
2018-12-20T02:12:16.083Z,95.50
2018-12-20T02:14:44.173Z,95.40
2018-12-20T02:17:11.900Z,95.30
2018-12-20T02:19:39.700Z,95.10
2018-12-20T02:22:07.528Z,95.00
2018-12-20T02:24:35.410Z,95.20
2018-12-20T02:27:03.355Z,95.20
2018-12-20T02:29:31.268Z,95.20
2018-12-20T02:32:00.194Z,95.50
2018-12-20T02:34:27.761Z,95.40
2018-12-20T02:36:55.610Z,95.20
2018-12-20T02:39:23.640Z,95.20
2018-12-20T02:41:51.490Z,94.90
2018-12-20T02:44:19.450Z,94.90
2018-12-20T02:46:47.177Z,95.00
2018-12-20T02:49:14.855Z,95.40
2018-12-20T02:51:42.550Z,95.40
2018-12-20T02:54:10.351Z,95.60
2018-12-20T02:56:38.223Z,95.40
2018-12-20T02:59:05.801Z,95.20
2018-12-20T03:01:33.449Z,95.20
2018-12-20T03:04:01.535Z,95.40
2018-12-20T03:06:29.219Z,95.40
2018-12-20T03:08:57.177Z,95.60
2018-12-20T03:11:24.942Z,95.70
2018-12-20T03:13:52.635Z,95.80
2018-12-20T03:16:20.295Z,96.30
2018-12-20T03:18:47.954Z,96.30
2018-12-20T03:21:15.843Z,96.10
2018-12-20T03:23:43.716Z,95.80
2018-12-20T03:26:11.317Z,95.70
2018-12-20T03:28:38.898Z,95.50
2018-12-20T03:31:06.600Z,95.40
2018-12-20T03:33:34.218Z,95.30
2018-12-20T03:36:02.133Z,95.20
2018-12-20T03:38:29.763Z,95.00
2018-12-20T03:40:57.402Z,94.70
2018-12-20T03:43:25.234Z,94.70
2018-12-20T03:45:53.090Z,94.70
2018-12-20T03:48:20.873Z,95.00
2018-12-20T03:50:48.540Z,94.50
2018-12-20T03:53:16.118Z,94.70
2018-12-20T03:55:43.701Z,95.20
2018-12-20T03:58:11.388Z,95.30
2018-12-20T04:00:38.956Z,95.70
2018-12-20T04:03:06.737Z,95.80
2018-12-20T04:05:34.383Z,95.70
2018-12-20T04:08:02.028Z,95.70
2018-12-20T04:10:29.869Z,95.70
2018-12-20T04:12:57.500Z,95.90
2018-12-20T04:15:25.600Z,95.70
2018-12-20T04:17:53.262Z,95.40
2018-12-20T04:20:20.873Z,95.60
2018-12-20T04:22:48.635Z,95.70
2018-12-20T04:25:16.357Z,96.00
2018-12-20T04:27:44.250Z,96.10
2018-12-20T04:30:12.479Z,96.00
2018-12-20T04:32:40.267Z,95.90
2018-12-20T04:35:07.835Z,95.90
2018-12-20T04:37:35.701Z,95.70
2018-12-20T04:40:03.967Z,95.50
2018-12-20T04:42:31.643Z,95.70
2018-12-20T04:44:59.207Z,95.60
2018-12-20T04:47:26.989Z,95.50
2018-12-20T04:49:54.648Z,95.40
2018-12-20T04:52:22.456Z,95.30
2018-12-20T04:54:50.271Z,95.20
2018-12-20T04:57:18.052Z,95.30
2018-12-20T04:59:45.715Z,95.20
2018-12-20T05:02:13.389Z,95.20
2018-12-20T05:04:41.087Z,95.10
2018-12-20T05:07:08.573Z,95.20
2018-12-20T05:09:36.379Z,95.20
2018-12-20T05:12:04.354Z,95.40
2018-12-20T05:14:32.216Z,95.30
2018-12-20T05:17:00.079Z,95.30
2018-12-20T05:19:27.974Z,95.30
2018-12-20T05:21:55.639Z,95.40
2018-12-20T05:24:23.519Z,95.50
2018-12-20T05:26:51.234Z,95.50
2018-12-20T05:29:18.915Z,95.60
2018-12-20T05:31:46.570Z,95.60
2018-12-20T05:34:14.088Z,95.70
2018-12-20T05:36:41.878Z,95.80
2018-12-20T05:39:09.462Z,95.70
2018-12-20T05:41:37.315Z,95.70
2018-12-20T05:44:05.027Z,95.70
2018-12-20T05:46:32.665Z,95.80
2018-12-20T05:49:00.405Z,96.10
2018-12-20T05:51:28.205Z,96.20
2018-12-20T05:53:55.820Z,96.10
2018-12-20T05:56:23.480Z,96.20
2018-12-20T05:58:51.319Z,96.10
2018-12-20T06:01:19.055Z,96.10
2018-12-20T06:03:46.826Z,95.90
2018-12-20T06:06:14.647Z,95.90
2018-12-20T06:08:42.180Z,96.10
2018-12-20T06:11:09.978Z,96.20
2018-12-20T06:13:38.005Z,96.20
2018-12-20T06:16:12.617Z,96.30
2018-12-20T06:18:35.646Z,96.40
2018-12-20T06:21:03.239Z,96.50
2018-12-20T06:23:30.924Z,96.60
2018-12-20T06:25:58.788Z,96.60
2018-12-20T06:28:26.381Z,96.60
2018-12-20T06:30:53.913Z,96.70
2018-12-20T06:33:21.456Z,97.00
2018-12-20T06:35:49.131Z,97.00
2018-12-20T06:38:16.670Z,97.40
2018-12-20T06:40:44.549Z,97.40
2018-12-20T06:43:12.121Z,97.60
2018-12-20T06:45:39.657Z,97.60
2018-12-20T06:48:07.249Z,97.60
2018-12-20T06:50:34.772Z,97.60
2018-12-20T06:53:02.668Z,97.60
2018-12-20T06:55:30.282Z,97.50
2018-12-20T06:57:57.860Z,97.40
2018-12-20T07:00:25.408Z,97.40
2018-12-20T07:02:52.951Z,97.20
2018-12-20T07:05:20.501Z,97.20
2018-12-20T07:07:48.339Z,97.10
2018-12-20T07:10:15.879Z,97.00
2018-12-20T07:12:43.345Z,96.90
2018-12-20T07:15:11.624Z,97.00
2018-12-20T07:17:39.087Z,97.00
2018-12-20T07:20:06.826Z,97.00
2018-12-20T07:22:34.514Z,96.90
2018-12-20T07:25:02.201Z,96.90
2018-12-20T07:27:29.740Z,97.00
2018-12-20T07:29:57.396Z,97.00
2018-12-20T07:32:25.548Z,96.90
2018-12-20T07:34:53.550Z,96.80
2018-12-20T07:37:21.061Z,96.70
2018-12-20T07:39:48.603Z,96.70
2018-12-20T07:42:16.370Z,96.80
2018-12-20T07:44:43.931Z,96.80
2018-12-20T07:47:11.539Z,96.90
2018-12-20T07:49:39.051Z,96.90
2018-12-20T07:52:07.743Z,96.80
2018-12-20T07:54:35.503Z,96.80
2018-12-20T07:57:03.161Z,96.90
2018-12-20T07:59:30.796Z,96.70
2018-12-20T08:01:58.394Z,96.70
2018-12-20T08:04:26.003Z,96.50
2018-12-20T08:06:53.591Z,96.40
2018-12-20T08:09:21.135Z,96.30
2018-12-20T08:11:48.695Z,96.20
2018-12-20T08:14:16.359Z,96.10
2018-12-20T08:16:46.180Z,96.20
2018-12-20T08:19:13.396Z,96.20
2018-12-20T08:21:41.043Z,96.10
2018-12-20T08:24:08.840Z,96.30
2018-12-20T08:26:36.410Z,96.20
2018-12-20T08:29:03.949Z,96.40
2018-12-20T08:31:31.460Z,96.10
2018-12-20T08:33:59.133Z,95.80
2018-12-20T08:36:26.820Z,95.90
2018-12-20T08:38:54.672Z,95.90
2018-12-20T08:41:23.336Z,95.90
2018-12-20T08:43:50.909Z,96.00
2018-12-20T08:46:18.471Z,95.90
2018-12-20T08:48:46.135Z,95.60
2018-12-20T08:51:13.770Z,95.60
2018-12-20T08:53:41.240Z,95.10
2018-12-20T08:56:09.908Z,95.00
2018-12-20T08:58:37.451Z,95.00
2018-12-20T09:01:05.524Z,94.70
2018-12-20T09:03:33.535Z,94.60
2018-12-20T09:06:01.270Z,94.80
2018-12-20T09:08:28.825Z,94.80
2018-12-20T09:10:57.332Z,94.90
2018-12-20T09:13:25.020Z,95.10
2018-12-20T09:15:52.644Z,95.20
2018-12-20T09:18:20.178Z,95.30
2018-12-20T09:20:48.046Z,95.20
2018-12-20T09:23:15.585Z,95.00
2018-12-20T09:25:43.198Z,95.10
2018-12-20T09:28:10.969Z,94.80
2018-12-20T09:30:38.626Z,94.80
2018-12-20T09:33:07.885Z,94.60
2018-12-20T09:35:35.485Z,94.60
2018-12-20T09:38:03.126Z,94.50
2018-12-20T09:40:30.686Z,94.10
2018-12-20T09:42:58.412Z,93.50
2018-12-20T09:45:26.346Z,93.00
2018-12-20T09:47:58.398Z,93.10
2018-12-20T09:50:26.074Z,93.00
2018-12-20T09:52:53.543Z,93.00
2018-12-20T09:55:21.232Z,92.30
2018-12-20T09:57:48.758Z,91.70
2018-12-20T10:00:16.383Z,91.70
2018-12-20T10:02:44.334Z,91.70
2018-12-20T10:05:11.913Z,91.40
2018-12-20T10:07:40.567Z,91.20
2018-12-20T10:10:08.672Z,90.80
2018-12-20T10:12:36.228Z,90.70
2018-12-20T10:15:04.727Z,90.50
2018-12-20T10:17:32.243Z,90.90
2018-12-20T10:19:59.788Z,90.40
2018-12-20T10:22:27.266Z,90.10
2018-12-20T10:24:54.914Z,90.20
2018-12-20T10:27:22.485Z,90.20
2018-12-20T10:29:50.462Z,89.90
2018-12-20T10:32:18.050Z,89.70
2018-12-20T10:34:45.591Z,89.60
2018-12-20T10:37:13.085Z,89.40
2018-12-20T10:39:40.604Z,89.30
2018-12-20T10:42:08.492Z,88.80
2018-12-20T10:44:36.044Z,88.80
2018-12-20T10:47:09.288Z,88.80
2018-12-20T10:49:36.866Z,88.80
2018-12-20T10:52:05.540Z,88.90
2018-12-20T10:54:33.211Z,88.30
2018-12-20T10:57:00.747Z,88.60
2018-12-20T10:59:28.483Z,88.80
2018-12-20T11:03:01.419Z,88.60
2018-12-20T11:05:35.155Z,88.50
2018-12-20T11:08:08.667Z,88.70
2018-12-20T11:10:36.702Z,88.70
2018-12-20T11:13:09.858Z,88.90
2018-12-20T11:15:37.544Z,88.70
2018-12-20T11:18:05.140Z,89.00
2018-12-20T11:20:32.675Z,89.00
2018-12-20T11:23:00.574Z,88.90
2018-12-20T11:25:28.187Z,89.30
2018-12-20T11:27:55.664Z,89.00
2018-12-20T11:30:23.283Z,89.00
2018-12-20T11:32:51.045Z,88.80
2018-12-20T11:35:18.608Z,88.80
2018-12-20T11:37:46.458Z,88.80
2018-12-20T11:40:14.105Z,88.70
2018-12-20T11:42:41.624Z,89.30
2018-12-20T11:45:09.166Z,88.90
2018-12-20T11:47:36.784Z,89.10
2018-12-20T11:50:04.628Z,88.70
2018-12-20T11:52:32.322Z,88.70
2018-12-20T11:54:59.848Z,88.40
2018-12-20T11:57:27.381Z,88.30
2018-12-20T11:59:55.051Z,87.80
2018-12-20T12:02:24.582Z,87.50
2018-12-20T12:04:52.250Z,87.60
2018-12-20T12:07:19.807Z,87.50
2018-12-20T12:09:47.335Z,87.50
2018-12-20T12:12:15.127Z,87.50
2018-12-20T12:14:42.706Z,87.90
2018-12-20T12:17:10.387Z,87.90
2018-12-20T12:19:38.053Z,87.70
2018-12-20T12:22:05.986Z,88.10
2018-12-20T12:24:33.865Z,88.30
2018-12-20T12:27:01.789Z,88.40
2018-12-20T12:29:29.353Z,87.90
2018-12-20T12:31:57.194Z,87.90
2018-12-20T12:34:25.145Z,88.30
2018-12-20T12:36:52.805Z,87.70
2018-12-20T12:39:20.759Z,88.00
2018-12-20T12:41:48.406Z,87.90
2018-12-20T12:44:16.089Z,88.00
2018-12-20T12:46:43.893Z,88.10
2018-12-20T12:49:11.603Z,88.00
2018-12-20T12:51:39.503Z,88.00
2018-12-20T12:54:07.206Z,88.20
2018-12-20T12:56:34.914Z,88.70
2018-12-20T12:59:02.697Z,88.70
2018-12-20T13:01:30.384Z,88.10
2018-12-20T13:03:58.171Z,88.40
2018-12-20T13:06:25.704Z,87.90
2018-12-20T13:08:53.232Z,87.90
2018-12-20T13:11:20.831Z,88.30
2018-12-20T13:13:48.377Z,87.80
2018-12-20T13:16:15.968Z,88.10
2018-12-20T13:18:43.730Z,87.40
2018-12-20T13:21:11.403Z,87.70
2018-12-20T13:23:38.912Z,87.60
2018-12-20T13:26:06.456Z,88.10
2018-12-20T13:28:35.624Z,87.90
2018-12-20T13:31:03.398Z,88.50
2018-12-20T13:33:31.185Z,87.80
2018-12-20T13:35:58.736Z,87.60
2018-12-20T13:38:26.613Z,87.80
2018-12-20T13:40:54.239Z,88.00
2018-12-20T13:43:21.842Z,87.80
2018-12-20T13:45:49.643Z,87.90
2018-12-20T13:48:22.261Z,87.70
2018-12-20T13:50:47.130Z,87.70
2018-12-20T13:53:14.815Z,87.70
2018-12-20T13:55:42.530Z,88.00
2018-12-20T13:58:10.018Z,87.80
2018-12-20T14:00:37.597Z,87.70
2018-12-20T14:03:05.213Z,87.20
2018-12-20T14:05:32.961Z,87.30
2018-12-20T14:08:00.549Z,87.20
2018-12-20T14:10:28.144Z,87.30
2018-12-20T14:12:55.854Z,86.80
2018-12-20T14:15:23.528Z,87.30
2018-12-20T14:17:51.042Z,87.80
2018-12-20T14:20:18.630Z,86.90
2018-12-20T14:22:46.307Z,87.00
2018-12-20T14:25:13.905Z,87.10
2018-12-20T14:27:42.175Z,86.80
2018-12-20T14:30:09.836Z,87.10
2018-12-20T14:32:37.455Z,86.80
2018-12-20T14:35:05.267Z,86.90
2018-12-20T14:37:32.843Z,86.90
2018-12-20T14:40:00.576Z,86.90
2018-12-20T14:42:28.115Z,87.00
2018-12-20T14:44:55.609Z,87.10
2018-12-20T14:47:23.157Z,86.90
2018-12-20T14:49:50.875Z,87.10
2018-12-20T14:52:18.512Z,87.10
2018-12-20T14:54:46.016Z,87.10
2018-12-20T14:57:13.577Z,86.90
2018-12-20T14:59:41.408Z,87.00
2018-12-20T15:02:09.236Z,87.00
2018-12-20T15:04:36.907Z,87.20
2018-12-20T15:07:04.465Z,87.30
2018-12-20T15:09:32.343Z,87.20
2018-12-20T15:12:00.389Z,87.20
2018-12-20T15:14:28.189Z,87.70
2018-12-20T15:16:55.701Z,87.50
2018-12-20T15:19:23.311Z,87.40
2018-12-20T15:21:52.189Z,87.50
2018-12-20T15:24:19.815Z,87.60
2018-12-20T15:26:47.310Z,87.80
2018-12-20T15:29:14.889Z,87.70
2018-12-20T15:31:42.572Z,87.90
2018-12-20T15:34:10.365Z,88.00
2018-12-20T15:36:37.984Z,87.90
2018-12-20T15:39:06.694Z,88.10
2018-12-20T15:41:34.686Z,88.20
2018-12-20T15:44:02.518Z,88.50
2018-12-20T15:46:30.302Z,88.60
2018-12-20T15:49:03.025Z,88.70
2018-12-20T15:51:31.460Z,88.80
2018-12-20T15:53:59.331Z,88.90
2018-12-20T15:56:26.926Z,88.90
2018-12-20T15:58:54.769Z,89.10
2018-12-20T16:01:22.306Z,89.20
2018-12-20T16:03:49.995Z,89.40
2018-12-20T16:06:17.633Z,89.60
2018-12-20T16:08:46.439Z,89.70
2018-12-20T16:11:14.060Z,89.90
2018-12-20T16:13:41.984Z,90.00
2018-12-20T16:16:09.536Z,90.20
2018-12-20T16:18:37.168Z,90.50
2018-12-20T16:21:04.816Z,90.60
2018-12-20T16:23:32.486Z,90.80
2018-12-20T16:26:00.322Z,92.10
2018-12-20T16:28:27.868Z,90.90
2018-12-20T16:30:55.561Z,91.10
2018-12-20T16:33:23.324Z,91.40
2018-12-20T16:35:51.066Z,91.50
2018-12-20T16:38:18.632Z,91.50
2018-12-20T16:40:46.353Z,91.60
2018-12-20T16:43:14.209Z,91.70
2018-12-20T16:45:41.810Z,91.80
2018-12-20T16:48:09.627Z,91.90
2018-12-20T16:50:37.398Z,92.10
2018-12-20T16:53:05.642Z,92.00
2018-12-20T16:55:33.417Z,92.10
2018-12-20T16:58:00.961Z,92.20
2018-12-20T17:00:28.731Z,92.10
2018-12-20T17:02:56.392Z,92.20
2018-12-20T17:05:24.085Z,92.20
2018-12-20T17:07:51.716Z,92.30
2018-12-20T17:10:19.223Z,92.20
2018-12-20T17:12:47.102Z,92.30
2018-12-20T17:15:17.037Z,92.30
2018-12-20T17:17:44.964Z,92.20
2018-12-20T17:20:12.515Z,92.20
2018-12-20T17:22:40.369Z,92.00
2018-12-20T17:25:08.219Z,91.90
2018-12-20T17:27:36.759Z,91.90
2018-12-20T17:30:05.884Z,92.00
2018-12-20T17:32:34.925Z,91.60
2018-12-20T17:35:02.711Z,91.70
2018-12-20T17:37:30.436Z,91.80
2018-12-20T17:39:58.118Z,91.70
2018-12-20T17:42:25.967Z,91.80
2018-12-20T17:44:53.666Z,91.80
2018-12-20T17:47:21.402Z,92.00
2018-12-20T17:49:48.910Z,92.10
2018-12-20T17:52:16.630Z,92.10
2018-12-20T17:54:44.264Z,92.10
2018-12-20T17:57:11.974Z,92.10
2018-12-20T17:59:40.189Z,92.20
2018-12-20T18:02:27.868Z,91.80
2018-12-20T18:04:55.438Z,91.90
2018-12-20T18:07:22.994Z,91.80
2018-12-20T18:09:50.612Z,91.70
2018-12-20T18:12:18.283Z,91.80
2018-12-20T18:14:45.752Z,91.80
2018-12-20T18:17:13.583Z,91.60
2018-12-20T18:19:41.176Z,91.60
2018-12-20T18:22:09.069Z,91.60
2018-12-20T18:24:36.934Z,91.50
2018-12-20T18:27:04.675Z,91.40
2018-12-20T18:29:32.276Z,91.20
2018-12-20T18:31:59.822Z,91.20
2018-12-20T18:34:27.519Z,91.10
2018-12-20T18:36:55.128Z,91.00
2018-12-20T18:39:22.852Z,91.10
2018-12-20T18:41:50.500Z,91.20
2018-12-20T18:44:18.207Z,91.10
2018-12-20T18:46:45.750Z,91.10
2018-12-20T18:49:13.371Z,91.60
2018-12-20T18:51:40.947Z,91.40
2018-12-20T18:54:09.676Z,91.10
2018-12-20T18:56:38.216Z,91.40
2018-12-20T18:59:05.822Z,91.50
2018-12-20T19:01:33.482Z,91.40
2018-12-20T19:04:01.111Z,91.20
2018-12-20T19:06:29.344Z,91.40
2018-12-20T19:08:57.065Z,91.00
2018-12-20T19:11:24.625Z,91.00
2018-12-20T19:13:52.211Z,90.80
2018-12-20T19:16:19.974Z,90.70
2018-12-20T19:18:47.818Z,90.80
2018-12-20T19:21:15.700Z,90.50
2018-12-20T19:23:43.231Z,90.80
2018-12-20T19:26:10.984Z,90.50
2018-12-20T19:28:38.628Z,90.60
2018-12-20T19:31:06.259Z,90.60
2018-12-20T19:33:34.015Z,90.60
2018-12-20T19:36:01.547Z,90.50
2018-12-20T19:38:29.254Z,90.30
2018-12-20T19:40:56.783Z,90.50
2018-12-20T19:43:24.410Z,90.40
2018-12-20T19:45:51.972Z,90.20
2018-12-20T19:48:19.918Z,90.50
2018-12-20T19:50:47.506Z,90.10
2018-12-20T19:53:15.010Z,90.20
2018-12-20T19:55:43.178Z,90.30
2018-12-20T19:58:11.017Z,90.10
2018-12-20T20:00:38.580Z,90.10
2018-12-20T20:03:06.218Z,90.10
2018-12-20T20:05:33.967Z,90.20
2018-12-20T20:08:01.847Z,90.40
2018-12-20T20:10:29.390Z,90.10
2018-12-20T20:12:56.906Z,90.10
2018-12-20T20:15:24.661Z,90.40
2018-12-20T20:17:52.254Z,90.00
2018-12-20T20:20:19.791Z,90.20
2018-12-20T20:22:47.303Z,90.20
2018-12-20T20:25:14.898Z,90.30
2018-12-20T20:27:42.649Z,90.60
2018-12-20T20:30:13.594Z,91.10
2018-12-20T20:32:41.803Z,91.20
2018-12-20T20:35:09.368Z,91.20
2018-12-20T20:37:37.946Z,91.20
2018-12-20T20:40:07.839Z,91.40
2018-12-20T20:42:35.615Z,91.20
2018-12-20T20:45:03.744Z,91.10
2018-12-20T20:47:32.440Z,90.90
2018-12-20T20:50:00.165Z,90.80
2018-12-20T20:52:27.943Z,90.50
2018-12-20T20:54:55.477Z,90.60
2018-12-20T20:57:23.178Z,90.80
2018-12-20T20:59:51.264Z,90.50
2018-12-20T21:02:19.213Z,90.60
2018-12-20T21:04:46.742Z,90.80
2018-12-20T21:07:14.448Z,90.60
2018-12-20T21:09:42.161Z,90.70
2018-12-20T21:12:09.859Z,90.60
2018-12-20T21:14:39.600Z,90.40
2018-12-20T21:17:07.092Z,90.50
2018-12-20T21:19:34.685Z,90.60
2018-12-20T21:22:02.215Z,90.40
2018-12-20T21:24:29.724Z,90.60
2018-12-20T21:26:57.239Z,90.50
2018-12-20T21:29:25.184Z,90.50
2018-12-20T21:31:52.727Z,90.50
2018-12-20T21:34:20.247Z,90.60
2018-12-20T21:36:47.875Z,90.70
2018-12-20T21:39:15.686Z,90.80
2018-12-20T21:41:43.330Z,90.90
2018-12-20T21:44:10.890Z,90.80
2018-12-20T21:46:38.498Z,90.70
2018-12-20T21:49:06.183Z,90.80
2018-12-20T21:51:33.882Z,91.00
2018-12-20T21:54:01.362Z,90.90
2018-12-20T21:56:29.014Z,90.80
2018-12-20T21:58:56.560Z,90.80
2018-12-20T22:01:24.229Z,90.80
2018-12-20T22:03:51.809Z,90.90
2018-12-20T22:06:20.002Z,90.90
2018-12-20T22:08:47.618Z,90.90
2018-12-20T22:11:15.260Z,90.80
2018-12-20T22:13:42.838Z,90.80
2018-12-20T22:16:10.386Z,90.90
2018-12-20T22:18:38.302Z,90.90
2018-12-20T22:21:05.880Z,91.00
2018-12-20T22:23:33.453Z,90.90
2018-12-20T22:26:00.998Z,91.00
2018-12-20T22:28:28.674Z,90.90
2018-12-20T22:30:56.183Z,91.00
2018-12-20T22:33:23.827Z,91.10
2018-12-20T22:35:51.419Z,91.00
2018-12-20T22:38:19.022Z,91.30
2018-12-20T22:40:47.353Z,91.20
2018-12-20T22:43:15.178Z,91.40
2018-12-20T22:45:42.709Z,91.40
2018-12-20T22:48:10.317Z,91.30
2018-12-20T22:50:37.860Z,91.30
2018-12-20T22:53:07.188Z,91.30
2018-12-20T22:55:35.064Z,91.40
2018-12-20T22:58:02.772Z,91.40
2018-12-20T23:00:30.377Z,91.50
2018-12-20T23:02:58.006Z,91.60
2018-12-20T23:05:25.582Z,91.70
2018-12-20T23:07:53.214Z,91.90
2018-12-20T23:10:20.966Z,91.90
2018-12-20T23:12:48.784Z,92.00
2018-12-20T23:15:16.328Z,92.00
2018-12-20T23:17:44.118Z,92.30
2018-12-20T23:20:11.654Z,92.40
2018-12-20T23:22:39.613Z,92.40
2018-12-20T23:25:07.153Z,92.60
2018-12-20T23:27:34.835Z,92.70
2018-12-20T23:30:02.520Z,93.20
2018-12-20T23:32:30.256Z,93.30
2018-12-20T23:34:58.037Z,93.40
2018-12-20T23:37:25.628Z,93.40
2018-12-20T23:39:53.398Z,93.40
2018-12-20T23:42:20.990Z,93.40
2018-12-20T23:44:48.627Z,93.30
2018-12-20T23:47:16.183Z,93.20
2018-12-20T23:49:43.866Z,93.20
2018-12-20T23:52:11.456Z,93.20
2018-12-20T23:54:38.996Z,93.00
2018-12-20T23:57:06.498Z,93.00
2018-12-20T23:59:34.038Z,92.90
